sensor_id;sensor_type;location;lat;lon;timestamp;P1;durP1;ratioP1;P2;durP2;ratioP2
11996;SDS011;6058;48.704;9.474;2022-11-06T00:00:06;10.13;;;6.20;;
11996;SDS011;6058;48.704;9.474;2022-11-06T00:02:33;10.60;;;6.27;;
11996;SDS011;6058;48.704;9.474;2022-11-06T00:05:00;10.60;;;5.23;;
11996;SDS011;6058;48.704;9.474;2022-11-06T00:07:43;12.07;;;5.70;;
11996;SDS011;6058;48.704;9.474;2022-11-06T00:10:11;5.87;;;5.27;;
11996;SDS011;6058;48.704;9.474;2022-11-06T00:12:40;9.60;;;5.90;;
11996;SDS011;6058;48.704;9.474;2022-11-06T00:15:08;7.07;;;5.60;;
11996;SDS011;6058;48.704;9.474;2022-11-06T00:17:35;7.63;;;5.67;;
11996;SDS011;6058;48.704;9.474;2022-11-06T00:20:03;8.73;;;6.30;;
11996;SDS011;6058;48.704;9.474;2022-11-06T00:22:31;8.30;;;5.63;;
11996;SDS011;6058;48.704;9.474;2022-11-06T00:24:58;7.03;;;4.80;;
11996;SDS011;6058;48.704;9.474;2022-11-06T00:27:25;8.40;;;5.57;;
11996;SDS011;6058;48.704;9.474;2022-11-06T00:29:54;8.27;;;6.30;;
11996;SDS011;6058;48.704;9.474;2022-11-06T00:32:21;6.50;;;5.80;;
11996;SDS011;6058;48.704;9.474;2022-11-06T00:34:48;11.37;;;5.60;;
11996;SDS011;6058;48.704;9.474;2022-11-06T00:37:15;11.23;;;6.23;;
11996;SDS011;6058;48.704;9.474;2022-11-06T00:39:42;10.57;;;5.90;;
11996;SDS011;6058;48.704;9.474;2022-11-06T00:42:09;13.50;;;6.33;;
11996;SDS011;6058;48.704;9.474;2022-11-06T00:44:37;7.73;;;5.90;;
11996;SDS011;6058;48.704;9.474;2022-11-06T00:47:05;6.87;;;5.67;;
11996;SDS011;6058;48.704;9.474;2022-11-06T00:49:32;7.57;;;6.00;;
11996;SDS011;6058;48.704;9.474;2022-11-06T00:52:00;8.50;;;6.10;;
11996;SDS011;6058;48.704;9.474;2022-11-06T00:54:27;8.77;;;6.10;;
11996;SDS011;6058;48.704;9.474;2022-11-06T00:56:54;13.27;;;6.77;;
11996;SDS011;6058;48.704;9.474;2022-11-06T00:59:21;9.87;;;6.57;;
11996;SDS011;6058;48.704;9.474;2022-11-06T01:01:48;7.60;;;5.43;;
11996;SDS011;6058;48.704;9.474;2022-11-06T01:04:18;11.87;;;6.77;;
11996;SDS011;6058;48.704;9.474;2022-11-06T01:06:49;8.53;;;6.43;;
11996;SDS011;6058;48.704;9.474;2022-11-06T01:09:18;9.97;;;6.30;;
11996;SDS011;6058;48.704;9.474;2022-11-06T01:11:53;8.73;;;6.33;;
11996;SDS011;6058;48.704;9.474;2022-11-06T01:14:20;9.73;;;6.50;;
11996;SDS011;6058;48.704;9.474;2022-11-06T01:16:48;7.77;;;5.77;;
11996;SDS011;6058;48.704;9.474;2022-11-06T01:19:17;6.60;;;5.13;;
11996;SDS011;6058;48.704;9.474;2022-11-06T01:21:45;8.87;;;6.37;;
11996;SDS011;6058;48.704;9.474;2022-11-06T01:24:13;11.83;;;7.47;;
11996;SDS011;6058;48.704;9.474;2022-11-06T01:26:41;9.93;;;6.20;;
11996;SDS011;6058;48.704;9.474;2022-11-06T01:29:10;10.67;;;6.90;;
11996;SDS011;6058;48.704;9.474;2022-11-06T01:31:38;12.73;;;7.23;;
11996;SDS011;6058;48.704;9.474;2022-11-06T01:34:05;15.47;;;8.27;;
11996;SDS011;6058;48.704;9.474;2022-11-06T01:36:34;11.60;;;7.20;;
11996;SDS011;6058;48.704;9.474;2022-11-06T01:39:03;11.07;;;7.43;;
11996;SDS011;6058;48.704;9.474;2022-11-06T01:41:30;9.57;;;6.77;;
11996;SDS011;6058;48.704;9.474;2022-11-06T01:43:58;14.57;;;7.97;;
11996;SDS011;6058;48.704;9.474;2022-11-06T01:46:26;10.93;;;7.17;;
11996;SDS011;6058;48.704;9.474;2022-11-06T01:48:54;5.80;;;4.57;;
11996;SDS011;6058;48.704;9.474;2022-11-06T01:51:23;5.27;;;3.67;;
11996;SDS011;6058;48.704;9.474;2022-11-06T01:53:53;5.47;;;4.43;;
11996;SDS011;6058;48.704;9.474;2022-11-06T01:56:21;5.67;;;4.27;;
11996;SDS011;6058;48.704;9.474;2022-11-06T01:58:50;4.83;;;4.00;;
11996;SDS011;6058;48.704;9.474;2022-11-06T02:01:17;4.47;;;4.07;;
11996;SDS011;6058;48.704;9.474;2022-11-06T02:03:47;4.70;;;4.13;;
11996;SDS011;6058;48.704;9.474;2022-11-06T02:06:14;4.60;;;4.10;;
11996;SDS011;6058;48.704;9.474;2022-11-06T02:08:41;6.77;;;4.10;;
11996;SDS011;6058;48.704;9.474;2022-11-06T02:11:10;3.97;;;3.43;;
11996;SDS011;6058;48.704;9.474;2022-11-06T02:13:40;4.63;;;3.07;;
11996;SDS011;6058;48.704;9.474;2022-11-06T02:16:11;4.10;;;3.60;;
11996;SDS011;6058;48.704;9.474;2022-11-06T02:18:54;4.03;;;3.63;;
11996;SDS011;6058;48.704;9.474;2022-11-06T02:21:28;6.60;;;3.87;;
11996;SDS011;6058;48.704;9.474;2022-11-06T02:24:02;5.57;;;3.43;;
11996;SDS011;6058;48.704;9.474;2022-11-06T02:26:53;3.93;;;3.40;;
11996;SDS011;6058;48.704;9.474;2022-11-06T02:29:25;6.03;;;3.90;;
11996;SDS011;6058;48.704;9.474;2022-11-06T02:31:53;4.07;;;3.57;;
11996;SDS011;6058;48.704;9.474;2022-11-06T02:34:22;5.97;;;4.03;;
11996;SDS011;6058;48.704;9.474;2022-11-06T02:36:50;4.47;;;3.83;;
11996;SDS011;6058;48.704;9.474;2022-11-06T02:39:19;5.87;;;4.00;;
11996;SDS011;6058;48.704;9.474;2022-11-06T02:41:47;4.43;;;3.80;;
11996;SDS011;6058;48.704;9.474;2022-11-06T02:44:17;4.57;;;3.97;;
11996;SDS011;6058;48.704;9.474;2022-11-06T02:46:47;5.47;;;4.53;;
11996;SDS011;6058;48.704;9.474;2022-11-06T02:49:17;6.10;;;4.47;;
11996;SDS011;6058;48.704;9.474;2022-11-06T02:51:47;6.20;;;4.27;;
11996;SDS011;6058;48.704;9.474;2022-11-06T02:54:15;5.90;;;4.93;;
11996;SDS011;6058;48.704;9.474;2022-11-06T02:56:44;4.77;;;3.50;;
11996;SDS011;6058;48.704;9.474;2022-11-06T02:59:13;6.60;;;4.83;;
11996;SDS011;6058;48.704;9.474;2022-11-06T03:01:43;4.73;;;4.07;;
11996;SDS011;6058;48.704;9.474;2022-11-06T03:04:14;6.67;;;5.20;;
11996;SDS011;6058;48.704;9.474;2022-11-06T03:06:43;5.17;;;4.17;;
11996;SDS011;6058;48.704;9.474;2022-11-06T03:09:13;5.87;;;4.60;;
11996;SDS011;6058;48.704;9.474;2022-11-06T03:11:41;6.07;;;4.63;;
11996;SDS011;6058;48.704;9.474;2022-11-06T03:14:08;6.73;;;4.90;;
11996;SDS011;6058;48.704;9.474;2022-11-06T03:16:39;9.87;;;4.97;;
11996;SDS011;6058;48.704;9.474;2022-11-06T03:19:13;10.17;;;4.83;;
11996;SDS011;6058;48.704;9.474;2022-11-06T03:21:47;6.10;;;4.63;;
11996;SDS011;6058;48.704;9.474;2022-11-06T03:24:16;6.27;;;4.60;;
11996;SDS011;6058;48.704;9.474;2022-11-06T03:26:46;7.03;;;5.23;;
11996;SDS011;6058;48.704;9.474;2022-11-06T03:29:15;8.93;;;4.70;;
11996;SDS011;6058;48.704;9.474;2022-11-06T03:31:45;7.00;;;5.23;;
11996;SDS011;6058;48.704;9.474;2022-11-06T03:34:16;6.27;;;5.27;;
11996;SDS011;6058;48.704;9.474;2022-11-06T03:36:46;5.90;;;4.50;;
11996;SDS011;6058;48.704;9.474;2022-11-06T03:39:16;6.07;;;5.00;;
11996;SDS011;6058;48.704;9.474;2022-11-06T03:41:45;5.97;;;4.80;;
11996;SDS011;6058;48.704;9.474;2022-11-06T03:44:17;5.40;;;4.80;;
11996;SDS011;6058;48.704;9.474;2022-11-06T03:46:46;5.40;;;4.80;;
11996;SDS011;6058;48.704;9.474;2022-11-06T03:49:16;6.90;;;4.60;;
11996;SDS011;6058;48.704;9.474;2022-11-06T03:51:47;4.83;;;4.27;;
11996;SDS011;6058;48.704;9.474;2022-11-06T03:54:17;6.60;;;4.97;;
11996;SDS011;6058;48.704;9.474;2022-11-06T03:56:47;6.40;;;4.47;;
11996;SDS011;6058;48.704;9.474;2022-11-06T03:59:15;7.83;;;4.53;;
11996;SDS011;6058;48.704;9.474;2022-11-06T04:01:47;5.40;;;4.00;;
11996;SDS011;6058;48.704;9.474;2022-11-06T04:04:17;5.00;;;4.50;;
11996;SDS011;6058;48.704;9.474;2022-11-06T04:06:46;4.87;;;4.37;;
11996;SDS011;6058;48.704;9.474;2022-11-06T04:09:14;5.47;;;4.77;;
11996;SDS011;6058;48.704;9.474;2022-11-06T04:12:00;5.10;;;4.20;;
11996;SDS011;6058;48.704;9.474;2022-11-06T04:14:46;6.53;;;4.67;;
11996;SDS011;6058;48.704;9.474;2022-11-06T04:17:15;6.07;;;4.13;;
11996;SDS011;6058;48.704;9.474;2022-11-06T04:19:45;6.57;;;4.50;;
11996;SDS011;6058;48.704;9.474;2022-11-06T04:22:17;6.70;;;5.13;;
11996;SDS011;6058;48.704;9.474;2022-11-06T04:24:50;5.90;;;4.23;;
11996;SDS011;6058;48.704;9.474;2022-11-06T04:27:53;5.97;;;4.67;;
11996;SDS011;6058;48.704;9.474;2022-11-06T04:30:22;4.87;;;3.87;;
11996;SDS011;6058;48.704;9.474;2022-11-06T04:32:56;4.60;;;4.07;;
11996;SDS011;6058;48.704;9.474;2022-11-06T04:35:29;11.57;;;6.93;;
11996;SDS011;6058;48.704;9.474;2022-11-06T04:37:59;5.40;;;4.20;;
11996;SDS011;6058;48.704;9.474;2022-11-06T04:40:30;5.83;;;4.47;;
11996;SDS011;6058;48.704;9.474;2022-11-06T04:42:59;5.40;;;4.53;;
11996;SDS011;6058;48.704;9.474;2022-11-06T04:45:28;6.43;;;4.43;;
11996;SDS011;6058;48.704;9.474;2022-11-06T04:47:57;7.13;;;4.63;;
11996;SDS011;6058;48.704;9.474;2022-11-06T04:50:25;4.50;;;3.77;;
11996;SDS011;6058;48.704;9.474;2022-11-06T04:52:54;4.30;;;3.90;;
11996;SDS011;6058;48.704;9.474;2022-11-06T04:55:22;4.37;;;3.80;;
11996;SDS011;6058;48.704;9.474;2022-11-06T04:57:49;4.10;;;3.67;;
11996;SDS011;6058;48.704;9.474;2022-11-06T05:00:16;5.40;;;3.83;;
11996;SDS011;6058;48.704;9.474;2022-11-06T05:02:44;4.83;;;3.53;;
11996;SDS011;6058;48.704;9.474;2022-11-06T05:05:11;4.93;;;3.57;;
11996;SDS011;6058;48.704;9.474;2022-11-06T05:07:38;7.10;;;3.30;;
11996;SDS011;6058;48.704;9.474;2022-11-06T05:10:07;4.63;;;4.00;;
11996;SDS011;6058;48.704;9.474;2022-11-06T05:12:35;3.73;;;3.23;;
11996;SDS011;6058;48.704;9.474;2022-11-06T05:15:02;3.90;;;3.50;;
11996;SDS011;6058;48.704;9.474;2022-11-06T05:17:29;3.80;;;3.40;;
11996;SDS011;6058;48.704;9.474;2022-11-06T05:19:56;4.07;;;3.67;;
11996;SDS011;6058;48.704;9.474;2022-11-06T05:22:23;3.60;;;3.30;;
11996;SDS011;6058;48.704;9.474;2022-11-06T05:25:10;3.83;;;3.47;;
11996;SDS011;6058;48.704;9.474;2022-11-06T05:27:37;4.57;;;3.57;;
11996;SDS011;6058;48.704;9.474;2022-11-06T05:30:04;3.17;;;2.97;;
11996;SDS011;6058;48.704;9.474;2022-11-06T05:32:32;3.70;;;3.30;;
11996;SDS011;6058;48.704;9.474;2022-11-06T05:34:59;4.00;;;3.60;;
11996;SDS011;6058;48.704;9.474;2022-11-06T05:37:26;3.27;;;2.90;;
11996;SDS011;6058;48.704;9.474;2022-11-06T05:39:53;3.53;;;3.23;;
11996;SDS011;6058;48.704;9.474;2022-11-06T05:42:22;3.87;;;3.33;;
11996;SDS011;6058;48.704;9.474;2022-11-06T05:44:50;6.23;;;3.30;;
11996;SDS011;6058;48.704;9.474;2022-11-06T05:47:17;4.13;;;3.40;;
11996;SDS011;6058;48.704;9.474;2022-11-06T05:49:44;4.70;;;3.23;;
11996;SDS011;6058;48.704;9.474;2022-11-06T05:52:12;3.63;;;3.27;;
11996;SDS011;6058;48.704;9.474;2022-11-06T05:54:39;2.60;;;2.40;;
11996;SDS011;6058;48.704;9.474;2022-11-06T05:57:06;2.87;;;2.50;;
11996;SDS011;6058;48.704;9.474;2022-11-06T05:59:34;3.70;;;2.80;;
11996;SDS011;6058;48.704;9.474;2022-11-06T06:02:02;3.13;;;2.83;;
11996;SDS011;6058;48.704;9.474;2022-11-06T06:04:29;2.83;;;2.53;;
11996;SDS011;6058;48.704;9.474;2022-11-06T06:06:56;3.73;;;3.00;;
11996;SDS011;6058;48.704;9.474;2022-11-06T06:09:23;4.00;;;2.80;;
11996;SDS011;6058;48.704;9.474;2022-11-06T06:11:51;3.67;;;3.20;;
11996;SDS011;6058;48.704;9.474;2022-11-06T06:14:18;6.63;;;2.73;;
11996;SDS011;6058;48.704;9.474;2022-11-06T06:16:46;4.67;;;3.00;;
11996;SDS011;6058;48.704;9.474;2022-11-06T06:19:13;4.07;;;3.10;;
11996;SDS011;6058;48.704;9.474;2022-11-06T06:21:40;3.13;;;2.77;;
11996;SDS011;6058;48.704;9.474;2022-11-06T06:24:08;3.47;;;3.17;;
11996;SDS011;6058;48.704;9.474;2022-11-06T06:26:35;3.20;;;2.90;;
11996;SDS011;6058;48.704;9.474;2022-11-06T06:29:02;3.97;;;3.27;;
11996;SDS011;6058;48.704;9.474;2022-11-06T06:31:29;4.83;;;3.63;;
11996;SDS011;6058;48.704;9.474;2022-11-06T06:33:58;3.60;;;2.90;;
11996;SDS011;6058;48.704;9.474;2022-11-06T06:36:25;3.80;;;3.23;;
11996;SDS011;6058;48.704;9.474;2022-11-06T06:38:53;5.97;;;3.83;;
11996;SDS011;6058;48.704;9.474;2022-11-06T06:41:20;3.83;;;3.33;;
11996;SDS011;6058;48.704;9.474;2022-11-06T06:43:47;3.67;;;3.23;;
11996;SDS011;6058;48.704;9.474;2022-11-06T06:46:14;8.10;;;4.17;;
11996;SDS011;6058;48.704;9.474;2022-11-06T06:48:42;4.33;;;3.30;;
11996;SDS011;6058;48.704;9.474;2022-11-06T06:51:10;5.27;;;3.40;;
11996;SDS011;6058;48.704;9.474;2022-11-06T06:53:37;3.87;;;3.40;;
11996;SDS011;6058;48.704;9.474;2022-11-06T06:56:05;4.57;;;3.53;;
11996;SDS011;6058;48.704;9.474;2022-11-06T06:58:32;3.93;;;3.37;;
11996;SDS011;6058;48.704;9.474;2022-11-06T07:00:59;6.37;;;3.70;;
11996;SDS011;6058;48.704;9.474;2022-11-06T07:03:27;3.63;;;3.30;;
11996;SDS011;6058;48.704;9.474;2022-11-06T07:05:55;4.20;;;3.23;;
11996;SDS011;6058;48.704;9.474;2022-11-06T07:08:24;4.30;;;3.90;;
11996;SDS011;6058;48.704;9.474;2022-11-06T07:10:51;6.40;;;3.33;;
11996;SDS011;6058;48.704;9.474;2022-11-06T07:13:18;3.57;;;3.27;;
11996;SDS011;6058;48.704;9.474;2022-11-06T07:15:51;4.53;;;3.73;;
11996;SDS011;6058;48.704;9.474;2022-11-06T07:18:18;3.40;;;3.00;;
11996;SDS011;6058;48.704;9.474;2022-11-06T07:20:45;3.37;;;3.07;;
11996;SDS011;6058;48.704;9.474;2022-11-06T07:23:12;3.50;;;3.20;;
11996;SDS011;6058;48.704;9.474;2022-11-06T07:25:41;4.20;;;2.80;;
11996;SDS011;6058;48.704;9.474;2022-11-06T07:28:08;3.60;;;2.80;;
11996;SDS011;6058;48.704;9.474;2022-11-06T07:30:35;2.50;;;2.30;;
11996;SDS011;6058;48.704;9.474;2022-11-06T07:33:03;3.10;;;2.80;;
11996;SDS011;6058;48.704;9.474;2022-11-06T07:35:31;3.97;;;2.87;;
11996;SDS011;6058;48.704;9.474;2022-11-06T07:38:01;3.20;;;2.73;;
11996;SDS011;6058;48.704;9.474;2022-11-06T07:40:28;2.97;;;2.70;;
11996;SDS011;6058;48.704;9.474;2022-11-06T07:43:02;3.10;;;2.60;;
11996;SDS011;6058;48.704;9.474;2022-11-06T07:45:30;4.60;;;2.93;;
11996;SDS011;6058;48.704;9.474;2022-11-06T07:47:57;4.37;;;2.80;;
11996;SDS011;6058;48.704;9.474;2022-11-06T07:50:24;2.90;;;2.37;;
11996;SDS011;6058;48.704;9.474;2022-11-06T07:52:51;3.20;;;2.90;;
11996;SDS011;6058;48.704;9.474;2022-11-06T07:55:18;3.57;;;3.27;;
11996;SDS011;6058;48.704;9.474;2022-11-06T07:57:45;4.37;;;3.37;;
11996;SDS011;6058;48.704;9.474;2022-11-06T08:00:14;7.23;;;3.40;;
11996;SDS011;6058;48.704;9.474;2022-11-06T08:02:41;4.13;;;3.30;;
11996;SDS011;6058;48.704;9.474;2022-11-06T08:05:08;5.70;;;3.37;;
11996;SDS011;6058;48.704;9.474;2022-11-06T08:07:36;5.50;;;3.93;;
11996;SDS011;6058;48.704;9.474;2022-11-06T08:10:03;5.03;;;3.70;;
11996;SDS011;6058;48.704;9.474;2022-11-06T08:12:30;6.40;;;3.77;;
11996;SDS011;6058;48.704;9.474;2022-11-06T08:14:57;4.07;;;3.30;;
11996;SDS011;6058;48.704;9.474;2022-11-06T08:17:27;4.00;;;3.13;;
11996;SDS011;6058;48.704;9.474;2022-11-06T08:19:55;4.77;;;3.77;;
11996;SDS011;6058;48.704;9.474;2022-11-06T08:22:22;4.73;;;3.80;;
11996;SDS011;6058;48.704;9.474;2022-11-06T08:24:49;3.97;;;3.57;;
11996;SDS011;6058;48.704;9.474;2022-11-06T08:27:16;5.27;;;4.00;;
11996;SDS011;6058;48.704;9.474;2022-11-06T08:29:43;4.97;;;4.10;;
11996;SDS011;6058;48.704;9.474;2022-11-06T08:32:10;5.50;;;4.10;;
11996;SDS011;6058;48.704;9.474;2022-11-06T08:34:39;4.17;;;3.50;;
11996;SDS011;6058;48.704;9.474;2022-11-06T08:37:07;5.03;;;4.00;;
11996;SDS011;6058;48.704;9.474;2022-11-06T08:39:35;4.87;;;4.17;;
11996;SDS011;6058;48.704;9.474;2022-11-06T08:42:02;6.53;;;4.90;;
11996;SDS011;6058;48.704;9.474;2022-11-06T08:44:30;5.97;;;4.80;;
11996;SDS011;6058;48.704;9.474;2022-11-06T08:46:57;9.77;;;5.63;;
11996;SDS011;6058;48.704;9.474;2022-11-06T08:49:24;6.73;;;5.03;;
11996;SDS011;6058;48.704;9.474;2022-11-06T08:51:53;8.57;;;6.07;;
11996;SDS011;6058;48.704;9.474;2022-11-06T08:54:20;7.03;;;5.53;;
11996;SDS011;6058;48.704;9.474;2022-11-06T08:56:47;5.07;;;4.37;;
11996;SDS011;6058;48.704;9.474;2022-11-06T08:59:14;7.90;;;5.07;;
11996;SDS011;6058;48.704;9.474;2022-11-06T09:01:41;7.43;;;5.23;;
11996;SDS011;6058;48.704;9.474;2022-11-06T09:04:08;6.70;;;5.47;;
11996;SDS011;6058;48.704;9.474;2022-11-06T09:06:36;9.37;;;5.40;;
11996;SDS011;6058;48.704;9.474;2022-11-06T09:09:06;7.90;;;5.73;;
11996;SDS011;6058;48.704;9.474;2022-11-06T09:11:33;8.93;;;5.93;;
11996;SDS011;6058;48.704;9.474;2022-11-06T09:14:01;7.23;;;5.00;;
11996;SDS011;6058;48.704;9.474;2022-11-06T09:16:28;7.87;;;5.50;;
11996;SDS011;6058;48.704;9.474;2022-11-06T09:18:55;7.63;;;5.20;;
11996;SDS011;6058;48.704;9.474;2022-11-06T09:21:22;6.87;;;5.13;;
11996;SDS011;6058;48.704;9.474;2022-11-06T09:23:50;7.73;;;6.33;;
11996;SDS011;6058;48.704;9.474;2022-11-06T09:26:18;7.13;;;5.70;;
11996;SDS011;6058;48.704;9.474;2022-11-06T09:28:45;8.23;;;5.60;;
11996;SDS011;6058;48.704;9.474;2022-11-06T09:31:12;6.60;;;5.00;;
11996;SDS011;6058;48.704;9.474;2022-11-06T09:33:40;7.30;;;5.97;;
11996;SDS011;6058;48.704;9.474;2022-11-06T09:36:07;6.73;;;5.03;;
11996;SDS011;6058;48.704;9.474;2022-11-06T09:38:35;7.27;;;5.20;;
11996;SDS011;6058;48.704;9.474;2022-11-06T09:41:02;8.07;;;5.03;;
11996;SDS011;6058;48.704;9.474;2022-11-06T09:43:32;6.07;;;4.50;;
11996;SDS011;6058;48.704;9.474;2022-11-06T09:46:04;5.80;;;4.77;;
11996;SDS011;6058;48.704;9.474;2022-11-06T09:48:33;5.90;;;4.77;;
11996;SDS011;6058;48.704;9.474;2022-11-06T09:51:03;6.43;;;4.80;;
11996;SDS011;6058;48.704;9.474;2022-11-06T09:53:37;7.90;;;5.47;;
11996;SDS011;6058;48.704;9.474;2022-11-06T09:56:05;7.97;;;5.80;;
11996;SDS011;6058;48.704;9.474;2022-11-06T09:58:39;7.60;;;5.53;;
11996;SDS011;6058;48.704;9.474;2022-11-06T10:01:10;7.20;;;5.37;;
11996;SDS011;6058;48.704;9.474;2022-11-06T10:03:40;7.17;;;4.87;;
11996;SDS011;6058;48.704;9.474;2022-11-06T10:06:09;6.30;;;5.27;;
11996;SDS011;6058;48.704;9.474;2022-11-06T10:08:39;7.10;;;5.87;;
11996;SDS011;6058;48.704;9.474;2022-11-06T10:13:53;8.03;;;5.93;;
11996;SDS011;6058;48.704;9.474;2022-11-06T10:16:25;6.67;;;5.77;;
11996;SDS011;6058;48.704;9.474;2022-11-06T10:19:00;6.93;;;5.47;;
11996;SDS011;6058;48.704;9.474;2022-11-06T10:21:32;7.40;;;5.87;;
11996;SDS011;6058;48.704;9.474;2022-11-06T10:24:10;6.10;;;4.60;;
11996;SDS011;6058;48.704;9.474;2022-11-06T10:26:40;6.20;;;4.93;;
11996;SDS011;6058;48.704;9.474;2022-11-06T10:29:17;7.53;;;5.90;;
11996;SDS011;6058;48.704;9.474;2022-11-06T10:31:48;6.03;;;5.00;;
11996;SDS011;6058;48.704;9.474;2022-11-06T10:34:19;6.77;;;5.17;;
11996;SDS011;6058;48.704;9.474;2022-11-06T10:36:48;6.37;;;5.33;;
11996;SDS011;6058;48.704;9.474;2022-11-06T10:39:17;6.67;;;5.37;;
11996;SDS011;6058;48.704;9.474;2022-11-06T10:41:46;7.97;;;5.83;;
11996;SDS011;6058;48.704;9.474;2022-11-06T10:44:18;8.53;;;5.70;;
11996;SDS011;6058;48.704;9.474;2022-11-06T10:46:48;5.30;;;4.57;;
11996;SDS011;6058;48.704;9.474;2022-11-06T10:49:20;6.60;;;4.67;;
11996;SDS011;6058;48.704;9.474;2022-11-06T10:51:55;6.13;;;4.90;;
11996;SDS011;6058;48.704;9.474;2022-11-06T10:54:30;4.87;;;4.10;;
11996;SDS011;6058;48.704;9.474;2022-11-06T10:57:05;6.63;;;4.30;;
11996;SDS011;6058;48.704;9.474;2022-11-06T10:59:36;5.00;;;3.37;;
11996;SDS011;6058;48.704;9.474;2022-11-06T11:02:06;4.57;;;3.40;;
11996;SDS011;6058;48.704;9.474;2022-11-06T11:04:36;4.03;;;3.40;;
11996;SDS011;6058;48.704;9.474;2022-11-06T11:07:08;3.60;;;3.30;;
11996;SDS011;6058;48.704;9.474;2022-11-06T11:09:36;4.87;;;3.30;;
11996;SDS011;6058;48.704;9.474;2022-11-06T11:12:03;2.43;;;2.23;;
11996;SDS011;6058;48.704;9.474;2022-11-06T11:14:30;2.73;;;2.50;;
11996;SDS011;6058;48.704;9.474;2022-11-06T11:17:00;2.23;;;2.03;;
11996;SDS011;6058;48.704;9.474;2022-11-06T11:19:34;1.90;;;1.80;;
11996;SDS011;6058;48.704;9.474;2022-11-06T11:22:02;2.10;;;1.90;;
11996;SDS011;6058;48.704;9.474;2022-11-06T11:24:30;2.00;;;1.70;;
11996;SDS011;6058;48.704;9.474;2022-11-06T11:26:58;4.80;;;2.20;;
11996;SDS011;6058;48.704;9.474;2022-11-06T11:29:28;8.43;;;2.50;;
11996;SDS011;6058;48.704;9.474;2022-11-06T11:31:55;2.97;;;2.67;;
11996;SDS011;6058;48.704;9.474;2022-11-06T11:34:25;1.93;;;1.73;;
11996;SDS011;6058;48.704;9.474;2022-11-06T11:36:56;3.10;;;2.80;;
11996;SDS011;6058;48.704;9.474;2022-11-06T11:39:25;4.57;;;2.60;;
11996;SDS011;6058;48.704;9.474;2022-11-06T11:41:54;3.00;;;2.70;;
11996;SDS011;6058;48.704;9.474;2022-11-06T11:44:41;3.30;;;3.00;;
11996;SDS011;6058;48.704;9.474;2022-11-06T11:47:18;2.30;;;2.10;;
11996;SDS011;6058;48.704;9.474;2022-11-06T11:49:47;3.80;;;2.17;;
11996;SDS011;6058;48.704;9.474;2022-11-06T11:52:15;3.20;;;2.90;;
11996;SDS011;6058;48.704;9.474;2022-11-06T11:54:45;3.30;;;2.90;;
11996;SDS011;6058;48.704;9.474;2022-11-06T11:57:16;2.97;;;2.67;;
11996;SDS011;6058;48.704;9.474;2022-11-06T11:59:45;2.93;;;2.73;;
11996;SDS011;6058;48.704;9.474;2022-11-06T12:02:13;2.77;;;2.57;;
11996;SDS011;6058;48.704;9.474;2022-11-06T12:04:43;2.70;;;2.20;;
11996;SDS011;6058;48.704;9.474;2022-11-06T12:07:18;2.63;;;2.43;;
11996;SDS011;6058;48.704;9.474;2022-11-06T12:09:48;2.77;;;2.57;;
11996;SDS011;6058;48.704;9.474;2022-11-06T12:12:19;3.33;;;2.60;;
11996;SDS011;6058;48.704;9.474;2022-11-06T12:14:48;2.73;;;2.17;;
11996;SDS011;6058;48.704;9.474;2022-11-06T12:17:28;2.77;;;2.47;;
11996;SDS011;6058;48.704;9.474;2022-11-06T12:19:58;5.50;;;4.20;;
11996;SDS011;6058;48.704;9.474;2022-11-06T12:22:30;5.03;;;3.40;;
11996;SDS011;6058;48.704;9.474;2022-11-06T12:25:02;3.73;;;3.37;;
11996;SDS011;6058;48.704;9.474;2022-11-06T12:27:33;3.53;;;3.07;;
11996;SDS011;6058;48.704;9.474;2022-11-06T12:30:03;3.07;;;2.77;;
11996;SDS011;6058;48.704;9.474;2022-11-06T12:32:35;6.30;;;3.40;;
11996;SDS011;6058;48.704;9.474;2022-11-06T12:35:04;3.27;;;2.97;;
11996;SDS011;6058;48.704;9.474;2022-11-06T12:37:38;2.63;;;2.37;;
11996;SDS011;6058;48.704;9.474;2022-11-06T12:40:11;2.43;;;2.23;;
11996;SDS011;6058;48.704;9.474;2022-11-06T12:42:51;3.33;;;2.93;;
11996;SDS011;6058;48.704;9.474;2022-11-06T12:45:20;2.90;;;2.50;;
11996;SDS011;6058;48.704;9.474;2022-11-06T12:47:51;3.17;;;2.80;;
11996;SDS011;6058;48.704;9.474;2022-11-06T12:50:27;4.13;;;2.90;;
11996;SDS011;6058;48.704;9.474;2022-11-06T12:55:32;2.80;;;2.53;;
11996;SDS011;6058;48.704;9.474;2022-11-06T12:58:03;2.17;;;1.97;;
11996;SDS011;6058;48.704;9.474;2022-11-06T13:00:35;2.80;;;2.27;;
11996;SDS011;6058;48.704;9.474;2022-11-06T13:05:52;2.70;;;2.50;;
11996;SDS011;6058;48.704;9.474;2022-11-06T13:08:23;2.30;;;2.10;;
11996;SDS011;6058;48.704;9.474;2022-11-06T13:11:10;2.67;;;2.47;;
11996;SDS011;6058;48.704;9.474;2022-11-06T13:13:42;2.80;;;2.60;;
11996;SDS011;6058;48.704;9.474;2022-11-06T13:16:18;2.53;;;2.33;;
11996;SDS011;6058;48.704;9.474;2022-11-06T13:18:48;2.60;;;2.40;;
11996;SDS011;6058;48.704;9.474;2022-11-06T13:21:18;2.63;;;2.43;;
11996;SDS011;6058;48.704;9.474;2022-11-06T13:23:47;2.60;;;2.23;;
11996;SDS011;6058;48.704;9.474;2022-11-06T13:26:18;3.53;;;2.30;;
11996;SDS011;6058;48.704;9.474;2022-11-06T13:28:48;3.63;;;2.40;;
11996;SDS011;6058;48.704;9.474;2022-11-06T13:31:20;2.20;;;2.00;;
11996;SDS011;6058;48.704;9.474;2022-11-06T13:33:49;2.40;;;2.20;;
11996;SDS011;6058;48.704;9.474;2022-11-06T13:36:18;2.70;;;2.50;;
11996;SDS011;6058;48.704;9.474;2022-11-06T13:38:46;2.60;;;2.40;;
11996;SDS011;6058;48.704;9.474;2022-11-06T13:44:08;2.40;;;2.13;;
11996;SDS011;6058;48.704;9.474;2022-11-06T13:46:41;3.20;;;2.90;;
11996;SDS011;6058;48.704;9.474;2022-11-06T13:49:16;3.03;;;2.47;;
11996;SDS011;6058;48.704;9.474;2022-11-06T13:51:48;2.60;;;2.40;;
11996;SDS011;6058;48.704;9.474;2022-11-06T13:54:19;2.77;;;2.53;;
11996;SDS011;6058;48.704;9.474;2022-11-06T13:57:09;2.97;;;2.67;;
11996;SDS011;6058;48.704;9.474;2022-11-06T13:59:47;3.67;;;2.73;;
11996;SDS011;6058;48.704;9.474;2022-11-06T14:02:33;2.63;;;2.10;;
11996;SDS011;6058;48.704;9.474;2022-11-06T14:05:20;2.87;;;2.63;;
11996;SDS011;6058;48.704;9.474;2022-11-06T14:07:49;2.80;;;2.37;;
11996;SDS011;6058;48.704;9.474;2022-11-06T14:10:18;2.63;;;2.43;;
11996;SDS011;6058;48.704;9.474;2022-11-06T14:12:46;1.87;;;1.77;;
11996;SDS011;6058;48.704;9.474;2022-11-06T14:15:20;2.90;;;2.57;;
11996;SDS011;6058;48.704;9.474;2022-11-06T14:17:55;2.67;;;2.47;;
11996;SDS011;6058;48.704;9.474;2022-11-06T14:20:27;3.43;;;3.13;;
11996;SDS011;6058;48.704;9.474;2022-11-06T14:22:54;3.20;;;2.90;;
11996;SDS011;6058;48.704;9.474;2022-11-06T14:28:07;3.40;;;2.93;;
11996;SDS011;6058;48.704;9.474;2022-11-06T14:30:40;3.60;;;3.00;;
11996;SDS011;6058;48.704;9.474;2022-11-06T14:33:11;2.70;;;2.50;;
11996;SDS011;6058;48.704;9.474;2022-11-06T14:35:59;3.93;;;3.20;;
11996;SDS011;6058;48.704;9.474;2022-11-06T14:38:37;6.13;;;2.70;;
11996;SDS011;6058;48.704;9.474;2022-11-06T14:43:52;3.93;;;3.30;;
11996;SDS011;6058;48.704;9.474;2022-11-06T14:46:21;3.97;;;3.33;;
11996;SDS011;6058;48.704;9.474;2022-11-06T14:48:49;3.77;;;3.43;;
11996;SDS011;6058;48.704;9.474;2022-11-06T14:51:23;3.83;;;3.43;;
11996;SDS011;6058;48.704;9.474;2022-11-06T14:53:51;3.13;;;2.80;;
11996;SDS011;6058;48.704;9.474;2022-11-06T14:56:20;2.97;;;2.67;;
11996;SDS011;6058;48.704;9.474;2022-11-06T14:58:49;4.23;;;3.00;;
11996;SDS011;6058;48.704;9.474;2022-11-06T15:01:22;2.93;;;2.67;;
11996;SDS011;6058;48.704;9.474;2022-11-06T15:03:51;3.33;;;3.03;;
11996;SDS011;6058;48.704;9.474;2022-11-06T15:06:36;2.97;;;2.67;;
11996;SDS011;6058;48.704;9.474;2022-11-06T15:09:04;3.40;;;3.03;;
11996;SDS011;6058;48.704;9.474;2022-11-06T15:11:52;3.43;;;3.10;;
11996;SDS011;6058;48.704;9.474;2022-11-06T15:17:09;3.73;;;2.80;;
11996;SDS011;6058;48.704;9.474;2022-11-06T15:19:38;2.93;;;2.63;;
11996;SDS011;6058;48.704;9.474;2022-11-06T15:22:13;3.77;;;3.03;;
11996;SDS011;6058;48.704;9.474;2022-11-06T15:24:41;3.43;;;3.13;;
11996;SDS011;6058;48.704;9.474;2022-11-06T15:27:10;2.93;;;2.63;;
11996;SDS011;6058;48.704;9.474;2022-11-06T15:29:39;4.40;;;3.53;;
11996;SDS011;6058;48.704;9.474;2022-11-06T15:32:08;3.00;;;2.70;;
11996;SDS011;6058;48.704;9.474;2022-11-06T15:34:37;3.10;;;2.87;;